Time;durP1;ratioP1;P1;durP2;ratioP2;P2;SDS_P1;SDS_P2;PMS_P1;PMS_P2;Temp;Humidity;BMP_temperature;BMP_pressure;BME280_temperature;BME280_humidity;BME280_pressure;Samples;Min_cycle;Max_cycle;Signal;HPM_P1;HPM_P2
2022/04/18 00:06:59;;;;;;;0.20;0.10;;;14.40;99.90;;;;;;25511924;23;20223;-75
2022/04/18 00:17:09;;;;;;;0.20;0.10;;;14.40;99.90;;;;;;25521897;23;20261;-77
2022/04/18 00:27:13;;;;;;;0.20;0.10;;;14.80;99.90;;;;;;25523553;23;20210;-75
2022/04/18 00:37:18;;;;;;;0.20;0.00;;;14.60;99.90;;;;;;25499581;23;20197;-73
2022/04/18 00:47:22;;;;;;;0.20;0.10;;;14.50;99.90;;;;;;25498211;23;20171;-75
2022/04/18 00:57:29;;;;;;;0.20;0.10;;;14.40;99.90;;;;;;25503592;23;20206;-74
2022/04/18 01:07:34;;;;;;;0.20;0.10;;;13.90;99.90;;;;;;25505864;23;20234;-74
2022/04/18 01:17:39;;;;;;;0.20;0.10;;;13.50;99.90;;;;;;25533310;23;20246;-73
2022/04/18 01:38:07;;;;;;;0.20;0.10;;;13.00;99.90;;;;;;25507215;23;20194;-73
2022/04/18 01:48:12;;;;;;;0.20;0.10;;;12.50;99.90;;;;;;25505281;23;20167;-73
2022/04/18 01:58:16;;;;;;;0.20;0.10;;;12.40;99.90;;;;;;25533609;23;20524;-72
2022/04/18 02:08:22;;;;;;;0.20;0.10;;;12.50;99.90;;;;;;25530959;23;20197;-71
2022/04/18 02:18:25;;;;;;;0.20;0.10;;;12.20;99.90;;;;;;25508880;23;20306;-71
2022/04/18 02:28:31;;;;;;;0.20;0.10;;;12.00;99.90;;;;;;25532102;23;20199;-71
2022/04/18 02:38:34;;;;;;;0.20;0.10;;;11.80;99.90;;;;;;25529972;23;20201;-72
2022/04/18 02:48:43;;;;;;;0.20;0.10;;;11.90;99.90;;;;;;25528057;23;20191;-72
2022/04/18 02:58:47;;;;;;;0.20;0.10;;;11.90;99.90;;;;;;25529627;23;20254;-71
2022/04/18 03:08:52;;;;;;;0.20;0.10;;;11.70;99.90;;;;;;25530686;23;20190;-72
2022/04/18 03:18:56;;;;;;;0.20;0.10;;;11.70;99.90;;;;;;25527386;23;20242;-73
2022/04/18 03:29:01;;;;;;;0.20;0.10;;;11.40;99.90;;;;;;25529471;23;20218;-72
2022/04/18 03:49:28;;;;;;;0.20;0.10;;;11.50;99.90;;;;;;25526978;23;20262;-71
2022/04/18 03:59:32;;;;;;;0.20;0.10;;;11.50;99.90;;;;;;25528652;23;20302;-71
2022/04/18 04:09:37;;;;;;;0.20;0.10;;;11.50;99.90;;;;;;25524569;23;20171;-72
2022/04/18 04:19:41;;;;;;;0.20;0.10;;;11.40;99.90;;;;;;25526625;23;20255;-72
2022/04/18 04:29:46;;;;;;;0.20;0.10;;;11.70;99.90;;;;;;25501177;23;20205;-71
2022/04/18 04:39:50;;;;;;;0.20;0.10;;;11.60;99.90;;;;;;25507922;23;20258;-70
2022/04/18 04:49:55;;;;;;;0.30;0.30;;;11.40;99.90;;;;;;25534545;23;20190;-72
2022/04/18 04:59:59;;;;;;;0.20;0.10;;;11.80;99.90;;;;;;25533967;23;20262;-73
2022/04/18 05:10:05;;;;;;;0.20;0.10;;;12.10;99.90;;;;;;25536160;23;20190;-72
2022/04/18 05:20:09;;;;;;;0.20;0.10;;;11.90;99.90;;;;;;25506861;23;20246;-74
2022/04/18 05:30:15;;;;;;;0.20;0.10;;;11.90;99.90;;;;;;25531912;23;20226;-73
2022/04/18 05:40:18;;;;;;;0.20;0.10;;;12.20;99.90;;;;;;25504386;23;20258;-73
2022/04/18 05:50:24;;;;;;;0.20;0.10;;;12.30;99.90;;;;;;25532324;23;20218;-73
2022/04/18 06:00:27;;;;;;;0.27;0.20;;;12.60;99.90;;;;;;25506583;23;20226;-73
2022/04/18 06:10:33;;;;;;;0.20;0.10;;;13.10;99.90;;;;;;25531307;23;20314;-71
2022/04/18 06:20:37;;;;;;;0.20;0.10;;;13.60;99.90;;;;;;25528380;23;20251;-69
2022/04/18 06:30:42;;;;;;;0.20;0.10;;;14.10;99.90;;;;;;25504956;23;20293;-71
2022/04/18 06:40:46;;;;;;;0.20;0.07;;;14.60;99.90;;;;;;25529672;23;20234;-70
2022/04/18 06:50:51;;;;;;;0.20;0.10;;;15.20;99.90;;;;;;25502998;23;20266;-71
2022/04/18 07:00:55;;;;;;;0.20;0.10;;;15.70;99.90;;;;;;25501554;23;20203;-72
2022/04/18 07:11:01;;;;;;;0.20;0.10;;;16.00;99.90;;;;;;25503828;23;20255;-74
2022/04/18 07:21:04;;;;;;;0.20;0.10;;;16.10;99.90;;;;;;25525271;23;20259;-73
2022/04/18 07:31:10;;;;;;;0.20;0.10;;;15.90;99.90;;;;;;25528670;23;20206;-73
2022/04/18 07:41:14;;;;;;;0.20;0.10;;;15.80;99.90;;;;;;25527638;23;20486;-74
2022/04/18 07:51:35;;;;;;;0.20;0.10;;;16.20;99.90;;;;;;25499386;23;20178;-74
2022/04/18 08:01:40;;;;;;;0.20;0.10;;;17.20;99.90;;;;;;25498397;23;20203;-70
2022/04/18 08:11:45;;;;;;;0.20;0.10;;;17.30;99.90;;;;;;25528197;23;20279;-74
2022/04/18 08:21:49;;;;;;;0.20;0.10;;;17.40;99.90;;;;;;25522608;23;20197;-70
2022/04/18 08:31:54;;;;;;;0.20;0.10;;;17.00;99.90;;;;;;25499716;23;20301;-74
2022/04/18 08:42:00;;;;;;;0.20;0.10;;;16.40;99.90;;;;;;25497003;23;20206;-75
2022/04/18 09:02:31;;;;;;;1.63;1.53;;;17.00;99.90;;;;;;25520941;23;20270;-74
2022/04/18 09:12:42;;;;;;;0.40;0.40;;;17.20;99.90;;;;;;25525078;23;20172;-76
2022/04/18 09:22:47;;;;;;;0.20;0.10;;;17.20;99.90;;;;;;25530443;23;20217;-79
2022/04/18 09:33:00;;;;;;;0.20;0.07;;;17.60;99.90;;;;;;25529783;23;20225;-78
2022/04/18 09:43:04;;;;;;;0.20;0.10;;;17.50;99.90;;;;;;25504697;23;20232;-80
2022/04/18 09:53:17;;;;;;;0.20;0.10;;;17.60;99.90;;;;;;25529138;23;20679;-77
2022/04/18 10:03:22;;;;;;;0.20;0.10;;;17.50;99.90;;;;;;25526468;23;20202;-77
2022/04/18 10:13:29;;;;;;;0.20;0.10;;;17.20;99.90;;;;;;25529612;23;20486;-76
2022/04/18 10:23:52;;;;;;;0.20;0.10;;;17.00;99.90;;;;;;25498740;23;20235;-73
2022/04/18 10:33:58;;;;;;;0.20;0.10;;;18.10;99.90;;;;;;25499263;23;20261;-72
2022/04/18 10:44:05;;;;;;;0.20;0.10;;;17.80;99.90;;;;;;25496972;23;20262;-73
2022/04/18 10:54:15;;;;;;;0.20;0.00;;;18.20;99.90;;;;;;25500141;23;20195;-72
2022/04/18 11:04:19;;;;;;;0.20;0.10;;;18.50;99.90;;;;;;25498845;23;20261;-71
2022/04/18 11:14:27;;;;;;;0.20;0.07;;;19.20;99.90;;;;;;25522497;23;20173;-72
2022/04/18 11:24:36;;;;;;;0.20;0.10;;;19.10;99.90;;;;;;25520905;23;20214;-74
2022/04/18 11:34:44;;;;;;;0.20;0.10;;;19.70;99.90;;;;;;25522851;23;20271;-73
2022/04/18 11:44:49;;;;;;;0.20;0.10;;;20.00;99.90;;;;;;25523713;23;20332;-75
2022/04/18 11:55:00;;;;;;;0.20;0.00;;;21.10;99.90;;;;;;25522132;23;20171;-76
2022/04/18 12:15:28;;;;;;;0.20;0.00;;;22.20;99.90;;;;;;25520014;23;20228;-74
2022/04/18 12:25:33;;;;;;;0.20;0.00;;;21.80;99.90;;;;;;25500596;23;20178;-76
2022/04/18 12:35:40;;;;;;;0.20;0.00;;;22.30;99.90;;;;;;25523163;23;20226;-78
2022/04/18 12:45:46;;;;;;;0.20;0.00;;;21.00;99.90;;;;;;25523933;23;20194;-80
2022/04/18 12:56:07;;;;;;;0.20;0.00;;;21.70;99.90;;;;;;25528604;23;20203;-79
2022/04/18 13:06:11;;;;;;;0.20;0.00;;;22.80;99.90;;;;;;25502458;23;20320;-78
2022/04/18 13:16:22;;;;;;;0.20;0.00;;;22.90;99.90;;;;;;25482437;23;20263;-78
2022/04/18 13:26:28;;;;;;;0.20;0.00;;;22.50;99.90;;;;;;25532355;23;20194;-79
2022/04/18 13:36:37;;;;;;;0.20;0.00;;;22.70;99.90;;;;;;25504897;23;20270;-77
2022/04/18 13:46:41;;;;;;;0.20;0.20;;;22.90;99.90;;;;;;25534685;23;20194;-79
2022/04/18 13:56:47;;;;;;;0.20;0.10;;;23.20;99.90;;;;;;25534273;23;20198;-77
2022/04/18 14:06:51;;;;;;;0.20;0.13;;;23.10;99.90;;;;;;25533543;23;20182;-79
2022/04/18 14:27:20;;;;;;;0.63;0.63;;;23.90;99.90;;;;;;25459494;23;20202;-76
2022/04/18 14:37:26;;;;;;;0.20;0.00;;;23.80;99.90;;;;;;25507517;23;20194;-75
2022/04/18 14:47:29;;;;;;;0.20;0.00;;;24.90;99.90;;;;;;25534368;23;20159;-70
2022/04/18 14:57:35;;;;;;;1.10;1.07;;;23.80;99.90;;;;;;25531499;23;20214;-70
2022/04/18 15:07:39;;;;;;;0.20;0.10;;;23.60;99.90;;;;;;25533187;23;20167;-78
2022/04/18 15:17:44;;;;;;;0.20;0.10;;;25.00;99.90;;;;;;25529657;23;20186;-77
2022/04/18 15:27:48;;;;;;;0.20;0.00;;;25.10;99.90;;;;;;25504686;23;20214;-77
2022/04/18 15:37:53;;;;;;;0.20;0.00;;;24.60;99.90;;;;;;25504271;23;20210;-73
2022/04/18 15:47:57;;;;;;;0.20;0.10;;;21.90;99.90;;;;;;25506804;23;20191;-77
2022/04/18 15:58:02;;;;;;;0.20;0.10;;;20.90;99.90;;;;;;25528112;23;20190;-74
2022/04/18 16:08:07;;;;;;;0.20;0.00;;;20.20;99.90;;;;;;25524085;23;20166;-73
2022/04/18 16:18:12;;;;;;;0.20;0.00;;;19.60;99.90;;;;;;25523770;23;20190;-78
2022/04/18 19:29:38;;;;;;;0.20;0.00;;;16.00;99.90;;;;;;25609502;23;20184;-73
2022/04/18 19:39:43;;;;;;;0.20;0.10;;;16.10;99.90;;;;;;25658596;23;20185;-73
2022/04/18 19:49:47;;;;;;;0.20;0.00;;;16.00;99.90;;;;;;25657938;23;20154;-76
2022/04/18 19:59:52;;;;;;;0.20;0.07;;;15.90;99.90;;;;;;25655148;23;20262;-74
2022/04/18 20:09:56;;;;;;;0.20;0.00;;;15.30;99.90;;;;;;25657517;23;20170;-75
2022/04/18 20:20:01;;;;;;;0.20;0.10;;;15.20;99.90;;;;;;25611685;23;20222;-75
2022/04/18 20:30:06;;;;;;;0.20;0.10;;;15.00;99.90;;;;;;25505486;23;20167;-73
2022/04/18 20:40:12;;;;;;;0.20;0.00;;;14.90;99.90;;;;;;25530061;23;20201;-75
2022/04/18 20:50:16;;;;;;;0.20;0.07;;;14.80;99.90;;;;;;25505529;23;20182;-71
2022/04/18 21:00:21;;;;;;;0.20;0.00;;;14.50;99.90;;;;;;25504742;23;20293;-71
2022/04/18 21:10:25;;;;;;;0.20;0.00;;;14.30;99.90;;;;;;25533342;23;20174;-73
2022/04/18 21:20:32;;;;;;;0.20;0.00;;;14.20;99.90;;;;;;25514320;23;20218;-73
2022/04/18 21:30:36;;;;;;;0.20;0.10;;;14.20;99.90;;;;;;25536650;23;20151;-78
2022/04/18 21:40:42;;;;;;;0.20;0.10;;;14.30;99.90;;;;;;25512976;23;20615;-73
2022/04/18 21:50:48;;;;;;;0.20;0.10;;;14.10;99.90;;;;;;25532469;23;20227;-75
2022/04/18 22:01:06;;;;;;;0.40;0.40;;;14.10;99.90;;;;;;25529987;23;20239;-75
2022/04/18 22:11:10;;;;;;;0.20;0.10;;;14.00;99.90;;;;;;25511126;23;20261;-76
2022/04/18 22:31:51;;;;;;;0.20;0.10;;;14.20;99.90;;;;;;25231293;23;20174;-78
2022/04/18 22:41:57;;;;;;;0.20;0.10;;;14.20;99.90;;;;;;25534723;23;20190;-77
2022/04/18 22:52:00;;;;;;;0.20;0.00;;;14.10;99.90;;;;;;25509160;23;20171;-78
2022/04/18 23:02:08;;;;;;;0.20;0.00;;;14.10;99.90;;;;;;25507233;23;20210;-74
2022/04/18 23:12:15;;;;;;;0.20;0.00;;;13.90;99.90;;;;;;25532685;23;20227;-77
2022/04/18 23:22:22;;;;;;;0.20;0.00;;;13.70;99.90;;;;;;25529839;23;20484;-82
2022/04/18 23:32:25;;;;;;;0.20;0.00;;;13.80;99.90;;;;;;25528427;23;20187;-82
2022/04/18 23:42:31;;;;;;;0.20;0.10;;;13.60;99.90;;;;;;25504564;23;20198;-82
2022/04/18 23:52:34;;;;;;;0.20;0.00;;;13.30;99.90;;;;;;25501794;23;20258;-81
